Time;durP1;ratioP1;P1;durP2;ratioP2;P2;SDS_P1;SDS_P2;PMS_P1;PMS_P2;Temp;Humidity;BMP_temperature;BMP_pressure;BME280_temperature;BME280_humidity;BME280_pressure;Samples;Min_cycle;Max_cycle;Signal;HPM_P1;HPM_P2
2022/05/15 00:00:53;;;;;;;;;;;26.40;37.20;;;;;;5121601;28;609;-37
2022/05/15 00:03:22;;;;;;;;;;;26.40;37.40;;;;;;5121459;28;989;-37
2022/05/15 00:05:51;;;;;;;;;;;26.40;37.90;;;;;;5121093;28;1911;-36
2022/05/15 00:08:18;;;;;;;;;;;26.40;38.50;;;;;;5121766;28;988;-36
2022/05/15 00:10:45;;;;;;;;;;;26.40;37.40;;;;;;5122349;28;941;-36
2022/05/15 00:13:12;;;;;;;;;;;26.40;37.10;;;;;;5119858;28;999;-35
2022/05/15 00:15:39;;;;;;;;;;;26.50;37.10;;;;;;5120299;28;971;-37
2022/05/15 00:18:08;;;;;;;;;;;26.50;37.10;;;;;;5121783;28;1014;-36
2022/05/15 00:20:35;;;;;;;;;;;26.40;38.30;;;;;;5120450;28;2020;-36
2022/05/15 00:23:02;;;;;;;;;;;26.40;37.10;;;;;;5120936;28;1054;-36
2022/05/15 00:25:28;;;;;;;;;;;26.50;37.00;;;;;;5120975;28;1897;-36
2022/05/15 00:27:55;;;;;;;;;;;26.60;37.00;;;;;;5120677;28;970;-37
2022/05/15 00:30:22;;;;;;;;;;;26.50;37.00;;;;;;5120071;28;932;-36
2022/05/15 00:32:49;;;;;;;;;;;26.50;36.90;;;;;;5121143;28;1030;-37
2022/05/15 00:35:17;;;;;;;;;;;26.50;36.90;;;;;;5121004;28;938;-37
2022/05/15 00:37:44;;;;;;;;;;;26.60;36.90;;;;;;5121620;28;991;-37
2022/05/15 00:40:12;;;;;;;;;;;26.50;37.10;;;;;;5121066;28;1004;-37
2022/05/15 00:42:39;;;;;;;;;;;26.50;37.10;;;;;;5120287;28;996;-36
2022/05/15 00:45:06;;;;;;;;;;;26.50;36.90;;;;;;5120075;28;1149;-36
2022/05/15 00:47:33;;;;;;;;;;;26.60;37.10;;;;;;5120189;28;1905;-37
2022/05/15 00:50:00;;;;;;;;;;;26.60;36.90;;;;;;5120654;28;944;-37
2022/05/15 00:52:29;;;;;;;;;;;26.60;36.80;;;;;;5119675;28;1006;-37
2022/05/15 00:54:58;;;;;;;;;;;26.60;37.00;;;;;;5119930;28;1794;-37
2022/05/15 00:57:28;;;;;;;;;;;26.50;37.10;;;;;;5119095;28;1064;-38
2022/05/15 00:59:59;;;;;;;;;;;26.50;37.10;;;;;;5119043;28;1017;-36
2022/05/15 01:02:26;;;;;;;;;;;26.50;37.10;;;;;;5121405;28;964;-36
2022/05/15 01:04:53;;;;;;;;;;;26.50;37.10;;;;;;5108546;28;1528;-36
2022/05/15 01:07:20;;;;;;;;;;;26.50;37.20;;;;;;5099964;28;1980;-35
2022/05/15 01:09:50;;;;;;;;;;;26.50;37.30;;;;;;5099953;28;1394;-36
2022/05/15 01:12:17;;;;;;;;;;;26.50;37.20;;;;;;5100223;28;956;-36
2022/05/15 01:14:46;;;;;;;;;;;26.50;37.10;;;;;;5099396;28;950;-35
2022/05/15 01:17:12;;;;;;;;;;;26.50;37.30;;;;;;5099656;28;980;-36
2022/05/15 01:19:40;;;;;;;;;;;26.40;37.30;;;;;;5098456;28;975;-35
2022/05/15 01:22:10;;;;;;;;;;;26.50;37.40;;;;;;5099301;28;971;-36
2022/05/15 01:24:36;;;;;;;;;;;26.40;37.40;;;;;;5100094;28;956;-36
2022/05/15 01:27:04;;;;;;;;;;;26.50;37.40;;;;;;5100321;28;1977;-36
2022/05/15 01:29:32;;;;;;;;;;;26.50;37.40;;;;;;5099833;28;1007;-35
2022/05/15 01:31:59;;;;;;;;;;;26.50;37.40;;;;;;5100000;28;973;-36
2022/05/15 01:34:26;;;;;;;;;;;26.40;37.30;;;;;;5099983;28;961;-35
2022/05/15 01:36:54;;;;;;;;;;;26.50;37.30;;;;;;5099991;28;976;-36
2022/05/15 01:39:22;;;;;;;;;;;26.50;37.40;;;;;;5098283;28;1008;-35
2022/05/15 01:41:49;;;;;;;;;;;26.50;37.40;;;;;;5098439;28;946;-35
2022/05/15 01:44:15;;;;;;;;;;;26.50;37.40;;;;;;5098980;28;968;-36
2022/05/15 01:46:42;;;;;;;;;;;26.50;37.40;;;;;;5098673;28;1898;-36
2022/05/15 01:49:09;;;;;;;;;;;26.40;37.30;;;;;;5098529;28;937;-35
2022/05/15 01:51:38;;;;;;;;;;;26.50;37.30;;;;;;5099124;28;1011;-35
2022/05/15 01:54:05;;;;;;;;;;;26.50;37.30;;;;;;5099065;28;984;-36
2022/05/15 01:56:34;;;;;;;;;;;26.50;37.30;;;;;;5098553;28;980;-36
2022/05/15 01:59:00;;;;;;;;;;;26.50;37.40;;;;;;5099119;28;1031;-35
2022/05/15 02:01:27;;;;;;;;;;;26.50;37.30;;;;;;5100218;28;936;-36
2022/05/15 02:03:54;;;;;;;;;;;26.50;37.30;;;;;;5099080;28;1072;-36
2022/05/15 02:06:21;;;;;;;;;;;26.50;37.40;;;;;;5098697;28;1902;-36
2022/05/15 02:08:48;;;;;;;;;;;26.50;37.30;;;;;;5098717;28;1028;-36
2022/05/15 02:11:14;;;;;;;;;;;26.50;37.30;;;;;;5099315;28;972;-37
2022/05/15 02:13:42;;;;;;;;;;;26.50;37.40;;;;;;5099358;28;920;-36
2022/05/15 02:16:09;;;;;;;;;;;26.50;37.40;;;;;;5098231;28;1007;-37
2022/05/15 02:18:36;;;;;;;;;;;26.50;37.40;;;;;;5098948;28;925;-36
2022/05/15 02:21:02;;;;;;;;;;;26.50;37.30;;;;;;5098456;28;972;-37
2022/05/15 02:23:29;;;;;;;;;;;26.50;37.40;;;;;;5098024;28;1029;-37
2022/05/15 02:25:56;;;;;;;;;;;26.50;37.40;;;;;;5097925;28;1015;-36
2022/05/15 02:28:23;;;;;;;;;;;26.50;37.50;;;;;;5098636;28;1898;-36
2022/05/15 02:30:51;;;;;;;;;;;26.50;37.30;;;;;;5098984;28;1023;-36
2022/05/15 02:33:18;;;;;;;;;;;26.50;37.40;;;;;;5099442;28;1550;-36
2022/05/15 02:35:45;;;;;;;;;;;26.50;37.40;;;;;;5099003;28;1046;-37
2022/05/15 02:38:11;;;;;;;;;;;26.50;37.40;;;;;;5099300;28;945;-36
2022/05/15 02:40:38;;;;;;;;;;;26.50;37.40;;;;;;5099100;28;977;-36
2022/05/15 02:46:18;;;;;;;;;;;26.40;37.40;;;;;;5098266;28;1910;-37
2022/05/15 02:51:30;;;;;;;;;;;26.40;37.50;;;;;;5099108;28;895;-36
2022/05/15 02:53:57;;;;;;;;;;;26.40;37.40;;;;;;5098848;28;929;-37
2022/05/15 02:56:26;;;;;;;;;;;26.40;37.40;;;;;;5098862;28;1007;-36
2022/05/15 02:58:53;;;;;;;;;;;26.40;37.50;;;;;;5098933;28;1208;-36
2022/05/15 03:01:21;;;;;;;;;;;26.40;37.40;;;;;;5098396;28;1008;-36
2022/05/15 03:03:48;;;;;;;;;;;26.40;37.40;;;;;;5098234;28;1003;-37
2022/05/15 03:06:14;;;;;;;;;;;26.40;37.50;;;;;;5097927;28;1901;-36
2022/05/15 03:08:42;;;;;;;;;;;26.40;37.40;;;;;;5097628;28;1393;-37
2022/05/15 03:11:09;;;;;;;;;;;26.40;37.60;;;;;;5098957;28;937;-36
2022/05/15 03:13:36;;;;;;;;;;;26.40;37.40;;;;;;5098704;28;999;-36
2022/05/15 03:16:03;;;;;;;;;;;26.40;37.40;;;;;;5098259;28;1017;-36
2022/05/15 03:18:31;;;;;;;;;;;26.40;37.40;;;;;;5098209;28;949;-37
2022/05/15 03:20:57;;;;;;;;;;;26.40;37.40;;;;;;5098206;28;1027;-36
2022/05/15 03:23:24;;;;;;;;;;;26.40;37.40;;;;;;5098926;28;1004;-36
2022/05/15 03:25:52;;;;;;;;;;;26.40;37.40;;;;;;5098420;28;1012;-36
2022/05/15 03:28:18;;;;;;;;;;;26.40;37.40;;;;;;5097583;28;1982;-37
2022/05/15 03:30:45;;;;;;;;;;;26.40;37.40;;;;;;5098268;28;1090;-36
2022/05/15 03:33:12;;;;;;;;;;;26.40;37.30;;;;;;5098156;28;955;-36
2022/05/15 03:35:40;;;;;;;;;;;26.50;37.40;;;;;;5097904;28;995;-37
2022/05/15 03:38:08;;;;;;;;;;;26.40;37.40;;;;;;5098341;28;979;-36
2022/05/15 03:40:36;;;;;;;;;;;26.40;37.40;;;;;;5097864;28;1031;-36
2022/05/15 03:43:03;;;;;;;;;;;26.50;37.40;;;;;;5097694;28;932;-37
2022/05/15 03:45:30;;;;;;;;;;;26.40;37.40;;;;;;5097508;28;1074;-37
2022/05/15 03:47:57;;;;;;;;;;;26.50;37.50;;;;;;5097864;28;1983;-37
2022/05/15 03:50:24;;;;;;;;;;;26.40;37.40;;;;;;5097988;28;913;-37
2022/05/15 03:52:52;;;;;;;;;;;26.40;37.40;;;;;;5097347;28;956;-37
2022/05/15 03:55:19;;;;;;;;;;;26.40;37.40;;;;;;5096933;28;1057;-37
2022/05/15 03:57:46;;;;;;;;;;;26.40;37.40;;;;;;5097236;28;1488;-37
2022/05/15 04:00:15;;;;;;;;;;;26.40;37.40;;;;;;5097564;28;997;-37
2022/05/15 04:02:42;;;;;;;;;;;26.40;37.40;;;;;;5096531;28;968;-37
2022/05/15 04:05:10;;;;;;;;;;;26.40;37.40;;;;;;5097704;28;1071;-37
2022/05/15 04:07:42;;;;;;;;;;;26.50;37.50;;;;;;5098278;28;1992;-37
2022/05/15 04:10:10;;;;;;;;;;;26.40;37.40;;;;;;5098011;28;1033;-37
2022/05/15 04:12:37;;;;;;;;;;;26.40;37.40;;;;;;5097693;28;968;-37
2022/05/15 04:15:04;;;;;;;;;;;26.40;37.40;;;;;;5097419;28;1037;-36
2022/05/15 04:17:31;;;;;;;;;;;26.40;37.40;;;;;;5097455;28;988;-36
2022/05/15 04:20:01;;;;;;;;;;;26.40;37.40;;;;;;5097939;28;961;-37
2022/05/15 04:22:28;;;;;;;;;;;26.40;37.40;;;;;;5098025;28;932;-38
2022/05/15 04:24:55;;;;;;;;;;;26.40;37.20;;;;;;5097245;28;1639;-37
2022/05/15 04:27:24;;;;;;;;;;;26.40;37.30;;;;;;5097535;28;1906;-37
2022/05/15 04:29:51;;;;;;;;;;;26.40;37.40;;;;;;5097499;28;1135;-37
2022/05/15 04:32:18;;;;;;;;;;;26.40;37.40;;;;;;5097497;28;1001;-38
2022/05/15 04:34:44;;;;;;;;;;;26.40;37.40;;;;;;5097435;28;1041;-37
2022/05/15 04:37:11;;;;;;;;;;;26.40;37.40;;;;;;5097523;28;972;-38
2022/05/15 04:39:38;;;;;;;;;;;26.40;37.40;;;;;;5098962;28;956;-38
2022/05/15 04:42:05;;;;;;;;;;;26.40;37.30;;;;;;5101500;28;985;-36
2022/05/15 04:44:33;;;;;;;;;;;26.40;37.40;;;;;;5101076;28;932;-37
2022/05/15 04:47:00;;;;;;;;;;;26.40;37.40;;;;;;5100808;28;1917;-38
2022/05/15 04:49:27;;;;;;;;;;;26.40;37.40;;;;;;5100298;28;968;-38
2022/05/15 04:51:53;;;;;;;;;;;26.40;37.40;;;;;;5099678;28;895;-38
2022/05/15 04:54:20;;;;;;;;;;;26.40;37.40;;;;;;5099070;28;849;-38
2022/05/15 04:56:47;;;;;;;;;;;26.40;38.70;;;;;;5099394;28;1029;-38
2022/05/15 04:59:13;;;;;;;;;;;26.40;37.50;;;;;;5100250;28;1174;-38
2022/05/15 05:01:42;;;;;;;;;;;26.40;37.40;;;;;;5100341;28;1012;-36
2022/05/15 05:04:08;;;;;;;;;;;26.40;37.40;;;;;;5100334;28;1835;-38
2022/05/15 05:06:35;;;;;;;;;;;26.50;37.50;;;;;;5099769;28;1014;-38
2022/05/15 05:09:02;;;;;;;;;;;26.40;37.50;;;;;;5099552;28;1996;-38
2022/05/15 05:11:28;;;;;;;;;;;26.40;37.50;;;;;;5099559;28;972;-38
2022/05/15 05:13:55;;;;;;;;;;;26.50;37.60;;;;;;5099784;28;1084;-37
2022/05/15 05:16:22;;;;;;;;;;;26.40;37.60;;;;;;5100778;28;1020;-36
2022/05/15 05:18:50;;;;;;;;;;;26.40;37.50;;;;;;5099490;28;1008;-37
2022/05/15 05:21:18;;;;;;;;;;;26.40;37.50;;;;;;5098716;28;932;-38
2022/05/15 05:23:44;;;;;;;;;;;26.40;37.60;;;;;;5098483;28;999;-36
2022/05/15 05:26:11;;;;;;;;;;;26.40;37.50;;;;;;5099364;28;1039;-36
2022/05/15 05:28:37;;;;;;;;;;;26.40;37.60;;;;;;5098803;28;1910;-36
2022/05/15 05:31:04;;;;;;;;;;;26.40;37.50;;;;;;5098989;28;956;-36
2022/05/15 05:33:31;;;;;;;;;;;26.50;37.70;;;;;;5098508;28;930;-36
2022/05/15 05:35:59;;;;;;;;;;;26.50;37.60;;;;;;5098283;28;990;-36
2022/05/15 05:38:26;;;;;;;;;;;26.50;37.50;;;;;;5098580;28;1015;-36
2022/05/15 05:40:52;;;;;;;;;;;26.50;37.50;;;;;;5098724;28;948;-36
2022/05/15 05:43:19;;;;;;;;;;;26.50;37.60;;;;;;5097665;28;1391;-36
2022/05/15 05:45:46;;;;;;;;;;;26.50;37.60;;;;;;5098654;28;909;-36
2022/05/15 05:48:13;;;;;;;;;;;26.50;37.60;;;;;;5098282;28;1905;-36
2022/05/15 05:50:39;;;;;;;;;;;26.50;37.60;;;;;;5096931;28;988;-36
2022/05/15 05:53:07;;;;;;;;;;;26.40;37.60;;;;;;5098086;28;931;-36
2022/05/15 05:55:34;;;;;;;;;;;26.40;37.60;;;;;;5097404;28;936;-36
2022/05/15 05:58:01;;;;;;;;;;;26.50;37.60;;;;;;5097324;28;1039;-36
2022/05/15 06:00:30;;;;;;;;;;;26.50;37.60;;;;;;5097677;28;987;-36
2022/05/15 06:04:39;;;;;;;;;;;26.50;37.50;;;;;;5097527;28;988;-35
2022/05/15 06:05:43;;;;;;;;;;;26.50;37.50;;;;;;5078330;28;1005;-36
2022/05/15 06:08:12;;;;;;;;;;;26.50;37.50;;;;;;5097320;28;1999;-36
2022/05/15 06:10:38;;;;;;;;;;;26.50;37.50;;;;;;5096582;28;1004;-36
2022/05/15 06:13:05;;;;;;;;;;;26.50;37.50;;;;;;5096615;28;1088;-36
2022/05/15 06:15:32;;;;;;;;;;;26.50;37.60;;;;;;5096582;28;980;-35
2022/05/15 06:17:59;;;;;;;;;;;26.50;37.60;;;;;;5097460;28;920;-36
2022/05/15 06:20:26;;;;;;;;;;;26.50;37.70;;;;;;5096313;28;2079;-36
2022/05/15 06:22:53;;;;;;;;;;;26.50;37.60;;;;;;5096927;28;1016;-37
2022/05/15 06:25:21;;;;;;;;;;;26.50;37.60;;;;;;5106204;27;2147;-37
2022/05/15 06:27:47;;;;;;;;;;;26.50;37.60;;;;;;5116110;28;1898;-38
2022/05/15 06:30:15;;;;;;;;;;;26.60;37.70;;;;;;5116428;28;1696;-36
2022/05/15 06:32:42;;;;;;;;;;;26.50;37.60;;;;;;5117140;28;1011;-37
2022/05/15 06:35:09;;;;;;;;;;;26.50;37.50;;;;;;5116821;28;929;-38
2022/05/15 06:37:36;;;;;;;;;;;26.50;37.60;;;;;;5116180;28;968;-36
2022/05/15 06:40:04;;;;;;;;;;;26.50;37.60;;;;;;5115643;28;948;-37
2022/05/15 06:42:32;;;;;;;;;;;26.50;37.70;;;;;;5116376;28;1000;-38
2022/05/15 06:44:59;;;;;;;;;;;26.50;37.80;;;;;;5115307;28;1003;-38
2022/05/15 06:47:25;;;;;;;;;;;26.50;37.80;;;;;;5115827;28;2226;-38
2022/05/15 06:49:53;;;;;;;;;;;26.50;37.80;;;;;;5115225;28;940;-35
2022/05/15 06:52:20;;;;;;;;;;;26.50;37.80;;;;;;5115664;28;1083;-37
2022/05/15 06:54:46;;;;;;;;;;;26.50;37.80;;;;;;5116367;28;945;-38
2022/05/15 06:57:31;;;;;;;;;;;26.50;37.80;;;;;;5115525;28;1309;-37
2022/05/15 07:00:00;;;;;;;;;;;26.50;37.80;;;;;;5117273;28;981;-37
2022/05/15 07:02:28;;;;;;;;;;;26.50;37.80;;;;;;5117389;28;972;-37
2022/05/15 07:04:54;;;;;;;;;;;26.50;37.80;;;;;;5116530;28;962;-37
2022/05/15 07:07:21;;;;;;;;;;;26.50;37.80;;;;;;5116105;28;949;-35
2022/05/15 07:09:48;;;;;;;;;;;26.60;37.80;;;;;;5115737;28;1909;-36
2022/05/15 07:12:15;;;;;;;;;;;26.60;37.90;;;;;;5115513;28;984;-37
2022/05/15 07:14:42;;;;;;;;;;;26.60;37.80;;;;;;5115050;28;1019;-37
2022/05/15 07:17:10;;;;;;;;;;;26.60;37.40;;;;;;5114626;28;1048;-36
2022/05/15 07:19:37;;;;;;;;;;;26.70;37.40;;;;;;5114701;28;995;-36
2022/05/15 07:22:04;;;;;;;;;;;26.70;37.30;;;;;;5115461;28;1020;-36
2022/05/15 07:24:31;;;;;;;;;;;26.70;37.30;;;;;;5114675;28;964;-37
2022/05/15 07:26:58;;;;;;;;;;;26.80;37.20;;;;;;5115108;28;1068;-36
2022/05/15 07:29:25;;;;;;;;;;;26.80;37.20;;;;;;5114824;28;1989;-36
2022/05/15 07:31:53;;;;;;;;;;;26.80;37.20;;;;;;5115334;28;1994;-36
2022/05/15 07:34:21;;;;;;;;;;;26.80;37.30;;;;;;5112385;28;964;-36
2022/05/15 07:36:50;;;;;;;;;;;26.80;37.20;;;;;;5114042;28;916;-36
2022/05/15 07:39:17;;;;;;;;;;;26.80;37.30;;;;;;5114663;28;857;-36
2022/05/15 07:41:44;;;;;;;;;;;26.80;37.40;;;;;;5114183;28;1011;-36
2022/05/15 07:44:11;;;;;;;;;;;26.90;37.40;;;;;;5114893;28;950;-31
2022/05/15 07:46:39;;;;;;;;;;;26.90;37.50;;;;;;5115069;28;1039;-33
2022/05/15 07:49:08;;;;;;;;;;;26.90;37.50;;;;;;5114752;28;1897;-33
2022/05/15 07:51:37;;;;;;;;;;;26.90;37.40;;;;;;5115606;28;1044;-34
2022/05/15 07:54:04;;;;;;;;;;;26.90;37.30;;;;;;5116223;28;1043;-34
2022/05/15 07:56:31;;;;;;;;;;;26.90;37.40;;;;;;5115323;28;1028;-34
2022/05/15 07:58:57;;;;;;;;;;;27.00;37.60;;;;;;5114366;28;1067;-34
2022/05/15 08:01:24;;;;;;;;;;;26.90;38.30;;;;;;5115636;28;1020;-34
2022/05/15 08:03:51;;;;;;;;;;;26.90;37.20;;;;;;5113093;28;988;-34
2022/05/15 08:09:04;;;;;;;;;;;26.90;37.20;;;;;;5113394;28;1909;-34
2022/05/15 08:11:31;;;;;;;;;;;26.90;37.20;;;;;;5113188;28;1141;-34
2022/05/15 08:14:00;;;;;;;;;;;26.90;37.20;;;;;;5113689;28;848;-33
2022/05/15 08:16:27;;;;;;;;;;;26.90;37.40;;;;;;5117577;28;1025;-34
2022/05/15 08:24:24;;;;;;;;;;;26.90;37.20;;;;;;5116949;28;1488;-35
2022/05/15 08:26:50;;;;;;;;;;;26.90;37.40;;;;;;5116883;28;981;-35
2022/05/15 08:29:18;;;;;;;;;;;26.90;37.20;;;;;;5117646;28;1971;-35
2022/05/15 08:31:45;;;;;;;;;;;26.90;37.20;;;;;;5118015;28;941;-35
2022/05/15 08:34:12;;;;;;;;;;;26.90;37.20;;;;;;5118071;28;875;-35
2022/05/15 08:36:42;;;;;;;;;;;26.90;37.50;;;;;;5118092;28;1004;-35
2022/05/15 08:39:09;;;;;;;;;;;27.00;37.60;;;;;;5117359;28;937;-36
2022/05/15 08:41:41;;;;;;;;;;;27.00;37.70;;;;;;5116204;28;1018;-35
2022/05/15 08:44:09;;;;;;;;;;;27.00;37.70;;;;;;5116846;28;977;-36
2022/05/15 08:46:41;;;;;;;;;;;27.00;37.80;;;;;;5116833;28;1001;-35
2022/05/15 08:49:10;;;;;;;;;;;27.00;37.70;;;;;;5117489;28;1979;-35
2022/05/15 08:51:37;;;;;;;;;;;27.00;37.70;;;;;;5117658;28;945;-35
2022/05/15 08:54:05;;;;;;;;;;;27.00;37.70;;;;;;5116362;28;945;-36
2022/05/15 08:56:36;;;;;;;;;;;27.00;37.80;;;;;;5117115;28;976;-36
2022/05/15 08:59:06;;;;;;;;;;;27.00;38.30;;;;;;5115691;28;1109;-35
2022/05/15 09:01:34;;;;;;;;;;;27.10;38.10;;;;;;5115828;28;1839;-35
2022/05/15 09:04:01;;;;;;;;;;;27.00;37.80;;;;;;5117786;28;948;-35
2022/05/15 09:06:31;;;;;;;;;;;27.00;37.80;;;;;;5118219;28;1026;-35
2022/05/15 09:09:05;;;;;;;;;;;27.00;37.80;;;;;;5116324;28;1893;-35
2022/05/15 09:11:43;;;;;;;;;;;27.00;37.80;;;;;;5115512;28;945;-35
2022/05/15 09:14:14;;;;;;;;;;;27.00;37.60;;;;;;5116629;28;896;-35
2022/05/15 09:16:48;;;;;;;;;;;27.00;37.50;;;;;;5116580;28;1391;-37
2022/05/15 09:19:15;;;;;;;;;;;27.00;37.50;;;;;;5115181;28;939;-37
2022/05/15 09:21:42;;;;;;;;;;;27.00;37.30;;;;;;5116273;28;867;-38
2022/05/15 09:24:12;;;;;;;;;;;27.00;37.40;;;;;;5118333;28;1757;-38
2022/05/15 09:26:43;;;;;;;;;;;27.10;37.10;;;;;;5117537;28;972;-38
2022/05/15 09:29:17;;;;;;;;;;;27.10;37.00;;;;;;5115659;28;1898;-38
2022/05/15 09:31:44;;;;;;;;;;;27.10;36.90;;;;;;5116529;28;940;-38
2022/05/15 09:34:14;;;;;;;;;;;27.00;36.50;;;;;;5117091;28;1027;-38
2022/05/15 09:36:42;;;;;;;;;;;27.00;37.50;;;;;;5117070;28;957;-38
2022/05/15 09:39:10;;;;;;;;;;;27.00;36.30;;;;;;5115314;28;837;-36
2022/05/15 09:44:37;;;;;;;;;;;27.00;35.90;;;;;;5053921;28;1078;-34
2022/05/15 09:47:15;;;;;;;;;;;27.00;35.80;;;;;;5055885;28;984;-34
2022/05/15 09:49:42;;;;;;;;;;;27.00;35.60;;;;;;5087363;28;1909;-34
2022/05/15 09:52:11;;;;;;;;;;;27.10;35.40;;;;;;5118036;28;1139;-34
2022/05/15 09:54:43;;;;;;;;;;;27.00;35.40;;;;;;5115733;28;1587;-34
2022/05/15 09:57:13;;;;;;;;;;;27.00;35.40;;;;;;5115390;28;1074;-34
2022/05/15 09:59:41;;;;;;;;;;;27.00;36.60;;;;;;5115483;28;941;-34
2022/05/15 10:02:17;;;;;;;;;;;27.00;35.60;;;;;;5116806;28;1058;-34
2022/05/15 10:04:47;;;;;;;;;;;27.00;35.50;;;;;;5118696;28;1012;-34
2022/05/15 10:07:32;;;;;;;;;;;27.00;36.70;;;;;;5117750;28;1090;-34
2022/05/15 10:10:12;;;;;;;;;;;27.00;35.50;;;;;;5118410;28;1898;-38
2022/05/15 10:12:40;;;;;;;;;;;27.00;35.60;;;;;;5116326;28;1722;-38
2022/05/15 10:15:09;;;;;;;;;;;27.00;35.60;;;;;;5115526;28;872;-34
2022/05/15 10:17:40;;;;;;;;;;;27.10;35.60;;;;;;5114486;28;983;-34
2022/05/15 10:20:10;;;;;;;;;;;27.10;35.40;;;;;;5114625;28;1029;-35
2022/05/15 10:22:43;;;;;;;;;;;27.10;35.40;;;;;;5114753;28;1004;-34
2022/05/15 10:25:16;;;;;;;;;;;27.10;35.40;;;;;;5115369;28;933;-34
2022/05/15 10:27:44;;;;;;;;;;;27.10;35.40;;;;;;5115293;28;964;-34
2022/05/15 10:30:16;;;;;;;;;;;27.10;35.40;;;;;;5115609;28;1993;-33
2022/05/15 10:32:45;;;;;;;;;;;27.20;35.50;;;;;;5115327;28;1035;-34
2022/05/15 10:35:15;;;;;;;;;;;27.20;35.60;;;;;;5115112;28;1015;-34
2022/05/15 10:37:59;;;;;;;;;;;27.30;35.30;;;;;;5115000;28;951;-34
2022/05/15 10:40:29;;;;;;;;;;;27.20;35.50;;;;;;5115557;28;867;-34
2022/05/15 10:43:02;;;;;;;;;;;27.20;35.50;;;;;;5118168;28;956;-34
2022/05/15 10:45:34;;;;;;;;;;;27.20;35.40;;;;;;5116228;28;932;-34
2022/05/15 10:48:06;;;;;;;;;;;27.20;35.70;;;;;;5117467;28;924;-34
2022/05/15 10:50:35;;;;;;;;;;;27.20;35.80;;;;;;5116054;28;1986;-34
2022/05/15 10:58:44;;;;;;;;;;;27.30;36.20;;;;;;5115805;28;1165;-34
2022/05/15 11:01:18;;;;;;;;;;;27.30;36.40;;;;;;5115043;28;998;-38
2022/05/15 11:03:51;;;;;;;;;;;27.30;36.40;;;;;;5117767;28;965;-38
2022/05/15 11:06:39;;;;;;;;;;;27.30;36.50;;;;;;5116701;28;996;-38
2022/05/15 11:09:11;;;;;;;;;;;27.40;36.30;;;;;;5111882;28;1893;-38
2022/05/15 11:11:45;;;;;;;;;;;27.40;36.60;;;;;;5117483;28;974;-38
2022/05/15 11:14:18;;;;;;;;;;;27.40;36.30;;;;;;5116557;28;872;-38
2022/05/15 11:16:51;;;;;;;;;;;27.40;36.30;;;;;;5115436;28;1147;-38
2022/05/15 11:19:26;;;;;;;;;;;27.40;36.70;;;;;;5115507;28;1016;-38
2022/05/15 11:21:56;;;;;;;;;;;27.40;36.30;;;;;;5114679;28;1016;-38
2022/05/15 11:24:30;;;;;;;;;;;27.50;36.50;;;;;;5116356;28;992;-38
2022/05/15 11:26:59;;;;;;;;;;;27.50;36.80;;;;;;5114917;28;1181;-33
2022/05/15 11:29:27;;;;;;;;;;;27.50;36.80;;;;;;5114629;28;1988;-38
2022/05/15 11:31:57;;;;;;;;;;;27.50;36.60;;;;;;5113776;28;1005;-38
2022/05/15 11:34:52;;;;;;;;;;;27.50;36.60;;;;;;5114397;28;1023;-38
2022/05/15 11:37:40;;;;;;;;;;;27.50;36.30;;;;;;5115832;28;1109;-37
2022/05/15 11:40:09;;;;;;;;;;;27.50;36.40;;;;;;5113616;28;1015;-36
2022/05/15 11:42:36;;;;;;;;;;;27.40;36.30;;;;;;5113907;28;1016;-36
2022/05/15 11:45:18;;;;;;;;;;;27.40;36.50;;;;;;5113159;28;957;-37
2022/05/15 11:47:57;;;;;;;;;;;27.50;36.60;;;;;;5112564;28;1258;-36
2022/05/15 11:50:31;;;;;;;;;;;27.40;36.60;;;;;;5116173;28;1980;-36
2022/05/15 11:53:08;;;;;;;;;;;27.40;36.50;;;;;;5118355;28;955;-37
2022/05/15 11:55:45;;;;;;;;;;;27.40;36.50;;;;;;5118575;28;1021;-34
2022/05/15 11:58:16;;;;;;;;;;;27.50;36.40;;;;;;5118773;28;1023;-37
2022/05/15 12:00:43;;;;;;;;;;;27.50;36.90;;;;;;5119728;28;920;-36
2022/05/15 12:03:41;;;;;;;;;;;27.60;36.80;;;;;;5120912;28;988;-36
2022/05/15 12:06:09;;;;;;;;;;;27.60;36.80;;;;;;5121349;28;1194;-36
2022/05/15 12:08:38;;;;;;;;;;;27.50;36.80;;;;;;5121230;28;952;-36
2022/05/15 12:11:27;;;;;;;;;;;27.50;37.00;;;;;;5120638;28;2180;-36
2022/05/15 12:13:55;;;;;;;;;;;27.50;37.00;;;;;;5119320;28;960;-36
2022/05/15 12:16:24;;;;;;;;;;;27.60;37.00;;;;;;5118320;28;1389;-36
2022/05/15 12:18:56;;;;;;;;;;;27.50;37.00;;;;;;5119753;28;1003;-36
2022/05/15 12:21:30;;;;;;;;;;;27.60;37.20;;;;;;5118399;28;1003;-36
2022/05/15 12:26:48;;;;;;;;;;;27.60;37.50;;;;;;5116312;28;959;-37
2022/05/15 12:29:23;;;;;;;;;;;27.60;37.40;;;;;;5117404;28;1994;-37
2022/05/15 12:31:50;;;;;;;;;;;27.60;37.40;;;;;;5116890;28;920;-36
2022/05/15 12:34:22;;;;;;;;;;;27.60;37.60;;;;;;5117181;28;905;-36
2022/05/15 12:36:52;;;;;;;;;;;27.60;37.90;;;;;;5116670;28;1164;-36
2022/05/15 12:39:23;;;;;;;;;;;27.70;38.40;;;;;;5117019;28;979;-35
2022/05/15 12:41:51;;;;;;;;;;;27.70;38.40;;;;;;5117729;28;1019;-37
2022/05/15 12:44:28;;;;;;;;;;;27.70;38.70;;;;;;5117016;28;1015;-37
2022/05/15 12:46:57;;;;;;;;;;;27.70;38.30;;;;;;5117130;28;975;-37
2022/05/15 12:49:34;;;;;;;;;;;27.80;37.70;;;;;;5116266;28;1901;-37
2022/05/15 12:52:12;;;;;;;;;;;27.80;37.70;;;;;;5116663;28;1587;-36
2022/05/15 12:54:41;;;;;;;;;;;27.70;37.80;;;;;;5116678;28;854;-36
2022/05/15 12:57:10;;;;;;;;;;;27.80;37.70;;;;;;5115951;28;1087;-36
2022/05/15 12:59:39;;;;;;;;;;;27.80;38.10;;;;;;5117061;28;939;-35
2022/05/15 13:02:22;;;;;;;;;;;27.80;37.80;;;;;;5117336;28;996;-35
2022/05/15 13:04:49;;;;;;;;;;;27.80;38.10;;;;;;5116438;28;1021;-36
2022/05/15 13:07:16;;;;;;;;;;;27.90;38.10;;;;;;5116472;28;992;-36
2022/05/15 13:09:56;;;;;;;;;;;27.90;37.80;;;;;;5115867;28;1976;-36
2022/05/15 13:12:24;;;;;;;;;;;27.80;37.80;;;;;;5115803;28;972;-36
2022/05/15 13:14:52;;;;;;;;;;;27.90;37.00;;;;;;5115110;28;1014;-36
2022/05/15 13:17:22;;;;;;;;;;;27.90;36.80;;;;;;5118661;28;964;-36
2022/05/15 13:19:51;;;;;;;;;;;27.90;36.60;;;;;;5118478;28;964;-36
2022/05/15 13:22:21;;;;;;;;;;;28.00;36.20;;;;;;5116367;28;996;-36
2022/05/15 13:24:50;;;;;;;;;;;28.00;36.30;;;;;;5116095;28;891;-36
2022/05/15 13:27:16;;;;;;;;;;;28.00;36.50;;;;;;5116461;28;933;-36
2022/05/15 13:29:43;;;;;;;;;;;28.00;36.70;;;;;;5116152;28;1910;-36
2022/05/15 13:32:13;;;;;;;;;;;28.00;36.50;;;;;;5115723;28;881;-37
2022/05/15 13:34:41;;;;;;;;;;;28.10;36.30;;;;;;5115414;28;975;-37
2022/05/15 13:37:13;;;;;;;;;;;28.10;36.40;;;;;;5115669;28;1130;-37
2022/05/15 13:45:14;;;;;;;;;;;28.10;36.10;;;;;;5114299;28;991;-38
2022/05/15 13:47:56;;;;;;;;;;;28.10;35.90;;;;;;5114196;28;995;-37
2022/05/15 13:50:32;;;;;;;;;;;28.10;35.90;;;;;;5112108;28;1909;-38
2022/05/15 13:53:13;;;;;;;;;;;28.10;35.70;;;;;;5115297;28;934;-37
2022/05/15 13:55:41;;;;;;;;;;;28.20;35.90;;;;;;5115765;28;1349;-37
2022/05/15 13:58:10;;;;;;;;;;;28.20;35.90;;;;;;5119534;28;1230;-39
2022/05/15 14:00:39;;;;;;;;;;;28.20;35.70;;;;;;5112214;28;2025;-38
2022/05/15 14:03:07;;;;;;;;;;;28.20;35.50;;;;;;5097719;28;880;-39
2022/05/15 14:05:34;;;;;;;;;;;28.20;35.70;;;;;;5097129;28;1015;-39
2022/05/15 14:08:13;;;;;;;;;;;28.30;35.60;;;;;;5098027;28;1032;-38
2022/05/15 14:10:40;;;;;;;;;;;28.30;35.60;;;;;;5099806;28;1905;-38
2022/05/15 14:13:09;;;;;;;;;;;28.30;35.70;;;;;;5097790;28;1012;-38
2022/05/15 14:15:43;;;;;;;;;;;28.30;35.70;;;;;;5095522;28;1004;-38
2022/05/15 14:18:12;;;;;;;;;;;28.30;35.70;;;;;;5104992;28;1690;-39
2022/05/15 14:20:41;;;;;;;;;;;28.40;35.60;;;;;;5117228;28;993;-39
2022/05/15 14:23:08;;;;;;;;;;;28.40;35.40;;;;;;5116409;28;1035;-39
2022/05/15 14:25:35;;;;;;;;;;;28.40;35.60;;;;;;5116499;28;979;-38
2022/05/15 14:28:02;;;;;;;;;;;28.40;35.50;;;;;;5116177;28;1012;-38
2022/05/15 14:30:29;;;;;;;;;;;28.50;35.50;;;;;;5115191;28;1905;-39
2022/05/15 14:32:58;;;;;;;;;;;28.50;35.50;;;;;;5116920;28;949;-38
2022/05/15 14:35:28;;;;;;;;;;;28.50;35.50;;;;;;5117800;28;951;-38
2022/05/15 14:37:55;;;;;;;;;;;28.50;35.50;;;;;;5115599;28;961;-39
2022/05/15 14:40:22;;;;;;;;;;;28.50;35.60;;;;;;5114531;28;1032;-39
2022/05/15 14:42:49;;;;;;;;;;;28.50;35.60;;;;;;5117235;28;933;-38
2022/05/15 14:45:18;;;;;;;;;;;28.50;35.60;;;;;;5115589;28;928;-39
2022/05/15 14:47:46;;;;;;;;;;;28.50;35.50;;;;;;5114877;28;981;-37
2022/05/15 14:50:15;;;;;;;;;;;28.60;35.30;;;;;;5113985;28;1905;-37
2022/05/15 14:52:47;;;;;;;;;;;28.60;35.40;;;;;;5114227;28;995;-37
2022/05/15 14:56:07;;;;;;;;;;;28.50;35.60;;;;;;5114949;28;996;-37
2022/05/15 14:58:12;;;;;;;;;;;28.60;35.50;;;;;;5114122;28;1039;-37
2022/05/15 15:00:40;;;;;;;;;;;28.50;35.10;;;;;;5112217;28;1141;-37
2022/05/15 15:03:06;;;;;;;;;;;28.50;34.80;;;;;;5108912;28;921;-38
2022/05/15 15:05:45;;;;;;;;;;;28.40;34.70;;;;;;5113549;28;968;-37
2022/05/15 15:08:13;;;;;;;;;;;28.40;34.70;;;;;;5114301;28;1763;-37
2022/05/15 15:10:39;;;;;;;;;;;28.30;34.50;;;;;;5115469;28;1901;-37
2022/05/15 15:13:07;;;;;;;;;;;28.40;34.10;;;;;;5115310;28;941;-37
2022/05/15 15:15:35;;;;;;;;;;;28.30;34.00;;;;;;5115299;28;1031;-37
2022/05/15 15:18:01;;;;;;;;;;;28.30;34.20;;;;;;5115352;27;933;-37